ADDS TAF Board INFO
 
 

IDs: Format: Expanded Condensed

KSTL - St Louis/Lambert Int, MO, US

Issued at 2053 UTC 22 Aug 2014
Time2051Z22/22Z22/23Z23/00Z23/01Z23/02Z23/03Z23/04Z23/05Z23/06Z23/07Z23/08Z23/09Z23/10Z
TypeOBSPRVLPRVLPRVLPRVLPRVLPRVLPRVLPRVLPRVLPRVLPRVLPRVLPRVL
Vis10>6>6>6>6>6>6>6>6>6>6>6>6>6
Cig2502502502502502502502502502502502508080
CoverBKNBKNBKNBKNBKNBKNBKNBKNBKNBKNBKNBKNBKNBKN
FltCat--VFRVFRVFRVFRVFRVFRVFRVFRVFRVFRVFRVFRVFR
Wx----------------------------
WDir210210210210190190190190190190190190240240
WSpd118885555555555
WGst----------------------------
R06/24
XWnd-6-4-4-4-4-4-4-4-4-4-4-4-0-0
HWnd-9-7-7-7-3-3-3-3-3-3-3-3-5-5
R11/29
XWnd-11-8-8-8-5-5-5-5-5-5-5-5-4-4
HWnd000022222222-2-2
R12/30
XWnd-11-8-8-8-5-5-5-5-5-5-5-5-4-4
HWnd000022222222-2-2
Raw TAF
KSTL 222053Z 2221/2324 21008KT P6SM FEW050 BKN250
  FM230100 19005KT P6SM BKN250
  FM230900 24005KT P6SM BKN080


Raw METAR
KSTL 222051Z 21011KT 10SM FEW080 BKN250 34/23 A2995 RMK AO2 SLP125 T03440233 56020

TAF Board Legend

Hazard Green Yellow Red Magenta
Visibility (sm) >5 >2.99 >0.99 <=0.99
Ceiling (100 ft) >30 >9.99 >4.99 <=4.99
Wind Speed (kt) <10 <20 <30 >=30
Wind Gust (kt) <10 <20 <30 >=30
Weather No Wx Reported Light precipitation Moderate precipitation Heavy precipitation
Flight Category VFR MVFR IFR LIFR

Page loaded:  21:37 UTC  |   02:37 PM Pacific  |   03:37 PM Mountain  |   04:37 PM Central  |   05:37 PM Eastern

 

ADVISORIES

FORECASTS

FORECASTS

OBSERVATIONS

USER TOOLS

ABOUT US